createdAt,value
2018-03-19T00:00:59.881Z,-2.30
2018-03-19T00:03:28.180Z,-2.30
2018-03-19T00:05:57.206Z,-2.30
2018-03-19T00:08:25.486Z,-2.40
2018-03-19T00:10:53.771Z,-2.40
2018-03-19T00:13:22.050Z,-2.40
2018-03-19T00:15:51.097Z,-2.40
2018-03-19T00:18:20.770Z,-2.50
2018-03-19T00:20:49.062Z,-2.50
2018-03-19T00:23:17.423Z,-2.50
2018-03-19T00:25:45.682Z,-2.40
2018-03-19T00:28:13.937Z,-2.50
2018-03-19T00:30:43.051Z,-2.50
2018-03-19T00:33:12.826Z,-2.50
2018-03-19T00:35:41.070Z,-2.50
2018-03-19T00:38:09.378Z,-2.50
2018-03-19T00:40:37.602Z,-2.50
2018-03-19T00:43:05.898Z,-2.60
2018-03-19T00:45:34.889Z,-2.70
2018-03-19T00:48:03.178Z,-2.70
2018-03-19T00:50:31.425Z,-2.70
2018-03-19T00:52:59.708Z,-2.70
2018-03-19T00:55:27.974Z,-2.70
2018-03-19T00:57:57.466Z,-2.80
2018-03-19T01:00:25.734Z,-2.80
2018-03-19T01:02:54.016Z,-2.90
2018-03-19T01:05:22.291Z,-2.90
2018-03-19T01:07:51.312Z,-2.80
2018-03-19T01:10:19.865Z,-2.80
2018-03-19T01:12:48.131Z,-2.70
2018-03-19T01:15:16.396Z,-2.80
2018-03-19T01:17:44.683Z,-2.90
2018-03-19T01:20:13.796Z,-2.90
2018-03-19T01:22:43.562Z,-2.90
2018-03-19T01:25:11.797Z,-2.90
2018-03-19T01:27:40.855Z,-3.00
2018-03-19T01:30:09.110Z,-3.00
2018-03-19T01:32:37.361Z,-2.90
2018-03-19T01:35:06.395Z,-3.00
2018-03-19T01:37:34.663Z,-3.00
2018-03-19T01:40:02.921Z,-3.00
2018-03-19T01:42:31.164Z,-3.00
2018-03-19T01:44:59.456Z,-3.00
2018-03-19T01:47:28.490Z,-3.00
2018-03-19T01:49:56.807Z,-3.00
2018-03-19T01:52:37.007Z,-3.00
2018-03-19T01:55:05.276Z,-3.00
2018-03-19T01:57:34.335Z,-3.00
2018-03-19T02:00:02.590Z,-3.00
2018-03-19T02:02:30.857Z,-3.00
2018-03-19T02:04:59.125Z,-3.00
2018-03-19T02:07:27.390Z,-3.00
2018-03-19T02:09:55.654Z,-3.10
2018-03-19T02:12:24.755Z,-3.10
2018-03-19T02:14:54.538Z,-3.20
2018-03-19T02:17:22.834Z,-3.20
2018-03-19T02:19:52.014Z,-3.20
2018-03-19T02:22:20.311Z,-3.20
2018-03-19T02:24:49.324Z,-3.20
2018-03-19T02:27:17.625Z,-3.20
2018-03-19T02:29:47.957Z,-3.20
2018-03-19T02:32:16.241Z,-3.30
2018-03-19T02:34:44.482Z,-3.30
2018-03-19T02:37:12.747Z,-3.40
2018-03-19T02:39:41.764Z,-3.40
2018-03-19T02:42:10.026Z,-3.40
2018-03-19T02:44:39.254Z,-3.40
2018-03-19T02:47:07.561Z,-3.40
2018-03-19T02:49:35.825Z,-3.50
2018-03-19T02:52:04.074Z,-3.50
2018-03-19T02:54:32.355Z,-3.50
2018-03-19T02:57:00.624Z,-3.50
2018-03-19T02:59:29.072Z,-3.50
2018-03-19T03:01:57.311Z,-3.50
2018-03-19T03:04:25.618Z,-3.50
2018-03-19T03:06:53.836Z,-3.50
2018-03-19T03:09:22.104Z,-3.50
2018-03-19T03:11:51.114Z,-3.50
2018-03-19T03:14:19.354Z,-3.50
2018-03-19T03:16:47.601Z,-3.50
2018-03-19T03:19:15.859Z,-3.50
2018-03-19T03:21:44.104Z,-3.50
2018-03-19T03:24:13.204Z,-3.50
2018-03-19T03:26:41.433Z,-3.60
2018-03-19T03:29:09.690Z,-3.50
2018-03-19T03:31:38.707Z,-3.50
2018-03-19T03:34:06.966Z,-3.50
2018-03-19T03:36:35.197Z,-3.50
2018-03-19T03:39:04.235Z,-3.50
2018-03-19T03:41:32.505Z,-3.60
2018-03-19T03:44:00.766Z,-3.60
2018-03-19T03:46:29.025Z,-3.70
2018-03-19T03:48:58.089Z,-3.60
2018-03-19T03:51:26.344Z,-3.70
2018-03-19T03:53:54.634Z,-3.80
2018-03-19T03:56:22.972Z,-3.70
2018-03-19T03:58:51.677Z,-3.80
2018-03-19T04:01:19.945Z,-3.80
2018-03-19T04:03:49.107Z,-3.90
2018-03-19T04:06:18.147Z,-3.90
2018-03-19T04:08:46.416Z,-3.90
2018-03-19T04:11:14.707Z,-3.90
2018-03-19T04:13:42.969Z,-3.90
2018-03-19T04:16:11.993Z,-3.90
2018-03-19T04:18:40.243Z,-3.90
2018-03-19T04:21:08.511Z,-3.90
2018-03-19T04:23:37.546Z,-3.90
2018-03-19T04:26:05.882Z,-3.90
2018-03-19T04:28:34.179Z,-3.90
2018-03-19T04:31:02.447Z,-3.90
2018-03-19T04:33:31.286Z,-3.90
2018-03-19T04:35:59.687Z,-4.00
2018-03-19T04:38:29.574Z,-4.10
2018-03-19T04:40:58.718Z,-4.10
2018-03-19T04:43:26.973Z,-4.10
2018-03-19T04:45:56.070Z,-4.20
2018-03-19T04:48:24.314Z,-4.20
2018-03-19T04:50:52.589Z,-4.20
2018-03-19T04:53:20.868Z,-4.20
2018-03-19T04:55:49.127Z,-4.20
2018-03-19T04:58:18.261Z,-4.10
2018-03-19T05:00:46.524Z,-4.20
2018-03-19T05:03:14.845Z,-4.20
2018-03-19T05:05:43.889Z,-4.10
2018-03-19T05:08:12.161Z,-4.10
2018-03-19T05:10:40.443Z,-4.10
2018-03-19T05:13:08.723Z,-4.10
2018-03-19T05:15:37.006Z,-4.10
2018-03-19T05:18:06.475Z,-4.10
2018-03-19T05:20:35.492Z,-4.20
2018-03-19T05:23:04.456Z,-4.20
2018-03-19T05:25:32.725Z,-4.20
2018-03-19T05:28:03.364Z,-4.10
2018-03-19T05:30:33.874Z,-4.10
2018-03-19T05:33:03.543Z,-4.20
2018-03-19T05:35:31.863Z,-4.20
2018-03-19T05:38:00.130Z,-4.20
2018-03-19T05:40:28.367Z,-4.20
2018-03-19T05:42:56.651Z,-4.20
2018-03-19T05:45:24.917Z,-4.20
2018-03-19T05:47:53.194Z,-4.10
2018-03-19T05:50:21.483Z,-4.10
2018-03-19T05:52:49.763Z,-4.10
2018-03-19T05:55:18.086Z,-4.00
2018-03-19T05:57:47.103Z,-4.10
2018-03-19T06:00:15.402Z,-4.10
2018-03-19T06:02:43.703Z,-4.10
2018-03-19T06:05:11.926Z,-4.10
2018-03-19T06:07:41.165Z,-3.90
2018-03-19T06:10:09.392Z,-4.00
2018-03-19T06:12:37.665Z,-3.90
2018-03-19T06:15:06.663Z,-3.70
2018-03-19T06:17:36.205Z,-3.60
2018-03-19T06:20:06.382Z,-3.60
2018-03-19T06:22:34.599Z,-3.60
2018-03-19T06:25:03.697Z,-3.50
2018-03-19T06:27:31.994Z,-3.60
2018-03-19T06:30:00.305Z,-3.50
2018-03-19T06:32:28.563Z,-3.50
2018-03-19T06:34:56.836Z,-3.50
2018-03-19T06:37:25.089Z,-3.40
2018-03-19T06:39:54.344Z,-3.50
2018-03-19T06:42:24.487Z,-3.60
2018-03-19T06:44:53.463Z,-3.50
2018-03-19T06:47:22.251Z,-3.40
2018-03-19T06:49:52.903Z,-3.50
2018-03-19T06:52:32.426Z,-3.40
2018-03-19T06:55:00.781Z,-3.30
2018-03-19T06:57:29.098Z,-3.10
2018-03-19T06:59:57.361Z,-3.10
2018-03-19T07:02:25.598Z,-3.10
2018-03-19T07:04:53.841Z,-3.00
2018-03-19T07:07:22.113Z,-3.00
2018-03-19T07:09:51.200Z,-2.90
2018-03-19T07:12:23.707Z,-2.90
2018-03-19T07:14:51.951Z,-2.90
2018-03-19T07:17:21.095Z,-2.90
2018-03-19T07:19:49.458Z,-2.90
2018-03-19T07:22:17.812Z,-2.90
2018-03-19T07:24:47.421Z,-2.80
2018-03-19T07:27:17.151Z,-2.80
2018-03-19T07:29:45.504Z,-2.60
2018-03-19T07:32:14.464Z,-2.60
2018-03-19T07:34:42.752Z,-2.50
2018-03-19T07:37:11.143Z,-2.50
2018-03-19T07:39:41.578Z,-2.50
2018-03-19T07:42:10.556Z,-2.50
2018-03-19T07:44:39.598Z,-2.50
2018-03-19T07:47:08.617Z,-2.40
2018-03-19T07:49:37.698Z,-2.30
2018-03-19T07:52:06.272Z,-2.30
2018-03-19T07:54:35.645Z,-2.20
2018-03-19T07:57:05.696Z,-2.00
2018-03-19T07:59:33.967Z,-2.00
2018-03-19T08:02:02.240Z,-1.90
2018-03-19T08:04:31.274Z,-1.90
2018-03-19T08:06:59.526Z,-1.90
2018-03-19T08:09:27.806Z,-1.80
2018-03-19T08:11:56.111Z,-1.80
2018-03-19T08:14:25.965Z,-1.50
2018-03-19T08:16:54.212Z,-1.50
2018-03-19T08:19:22.493Z,-1.50
2018-03-19T08:21:50.841Z,-1.40
2018-03-19T08:24:19.132Z,-1.30
2018-03-19T08:29:43.456Z,-1.20
2018-03-19T08:32:11.749Z,-1.00
2018-03-19T08:34:40.008Z,-0.90
2018-03-19T08:37:08.601Z,-0.80
2018-03-19T08:39:36.861Z,-0.70
2018-03-19T08:42:05.152Z,-0.50
2018-03-19T08:44:33.483Z,-0.50
2018-03-19T08:47:01.771Z,-0.50
2018-03-19T08:49:30.024Z,-0.50
2018-03-19T08:51:58.337Z,-0.50
2018-03-19T08:54:26.618Z,-0.70
2018-03-19T08:56:54.909Z,-0.90
2018-03-19T08:59:23.163Z,-0.80
2018-03-19T09:01:51.578Z,-0.60
2018-03-19T09:04:19.859Z,-0.50
2018-03-19T09:06:49.310Z,-0.40
2018-03-19T09:09:19.063Z,-0.30
2018-03-19T09:11:47.390Z,-0.30
2018-03-19T09:14:15.682Z,-0.20
2018-03-19T09:16:44.471Z,-0.10
2018-03-19T09:19:13.533Z,0.10
2018-03-19T09:21:42.505Z,0.10
2018-03-19T09:24:10.748Z,0.20
2018-03-19T09:26:39.037Z,0.30
2018-03-19T09:29:07.293Z,0.40
2018-03-19T09:31:36.297Z,0.20
2018-03-19T09:34:04.547Z,0.20
2018-03-19T09:36:33.865Z,0.30
2018-03-19T09:39:02.244Z,0.30
2018-03-19T09:41:31.324Z,0.30
2018-03-19T09:44:00.255Z,0.30
2018-03-19T09:46:29.237Z,0.40
2018-03-19T09:48:57.516Z,0.40
2018-03-19T09:51:26.516Z,0.40
2018-03-19T09:53:54.762Z,0.40
2018-03-19T09:56:23.803Z,0.50
2018-03-19T09:58:52.091Z,0.40
2018-03-19T10:01:20.381Z,0.50
2018-03-19T10:03:49.805Z,0.50
2018-03-19T10:06:18.056Z,0.30
2018-03-19T10:08:46.342Z,0.40
2018-03-19T10:11:14.646Z,0.40
2018-03-19T10:13:42.877Z,0.50
2018-03-19T10:16:11.162Z,0.50
2018-03-19T10:18:39.486Z,0.60
2018-03-19T10:21:09.392Z,0.40
2018-03-19T10:23:37.637Z,0.40
2018-03-19T10:26:05.911Z,0.50
2018-03-19T10:28:34.186Z,0.60
2018-03-19T10:31:02.819Z,0.70
2018-03-19T10:33:31.094Z,0.70
2018-03-19T10:36:00.046Z,0.80
2018-03-19T10:38:28.324Z,0.70
2018-03-19T10:40:57.310Z,0.90
2018-03-19T10:43:25.575Z,0.80
2018-03-19T10:45:53.858Z,0.80
2018-03-19T10:48:22.217Z,0.70
2018-03-19T10:50:50.423Z,0.80
2018-03-19T10:53:18.709Z,0.90
2018-03-19T10:55:46.946Z,0.90
2018-03-19T10:58:15.247Z,0.80
2018-03-19T11:00:43.774Z,0.90
2018-03-19T11:03:17.767Z,0.90
2018-03-19T11:05:50.668Z,1.10
2018-03-19T11:08:25.122Z,1.30
2018-03-19T11:10:53.489Z,1.40
2018-03-19T11:13:21.770Z,1.60
2018-03-19T11:15:49.974Z,1.40
2018-03-19T11:18:18.727Z,1.20
2018-03-19T11:20:47.827Z,1.10
2018-03-19T11:23:16.075Z,1.10
2018-03-19T11:25:44.456Z,1.10
2018-03-19T11:28:12.750Z,1.20
2018-03-19T11:30:41.804Z,1.30
2018-03-19T11:33:10.074Z,1.30
2018-03-19T11:35:39.636Z,1.50
2018-03-19T11:38:07.895Z,1.60
2018-03-19T11:40:36.276Z,1.70
2018-03-19T11:43:04.567Z,1.70
2018-03-19T11:45:33.622Z,1.80
2018-03-19T11:48:02.657Z,1.70
2018-03-19T11:50:31.711Z,1.80
2018-03-19T11:53:00.574Z,1.80
2018-03-19T11:55:28.858Z,1.80
2018-03-19T11:57:57.098Z,1.80
2018-03-19T12:00:25.364Z,1.80
2018-03-19T12:02:53.650Z,1.90
2018-03-19T12:05:22.820Z,2.00
2018-03-19T12:07:51.106Z,1.90
2018-03-19T12:10:19.514Z,1.90
2018-03-19T12:12:47.895Z,2.00
2018-03-19T12:15:16.157Z,2.10
2018-03-19T12:17:45.123Z,2.10
2018-03-19T12:20:13.377Z,2.20
2018-03-19T12:22:41.610Z,2.40
2018-03-19T12:25:10.004Z,2.50
2018-03-19T12:27:38.233Z,2.50
2018-03-19T12:30:06.465Z,2.60
2018-03-19T12:32:34.744Z,2.70
2018-03-19T12:35:03.000Z,2.70
2018-03-19T12:37:31.247Z,2.70
2018-03-19T12:39:59.532Z,2.80
2018-03-19T12:42:28.542Z,3.00
2018-03-19T12:44:57.577Z,3.00
2018-03-19T12:47:25.846Z,3.00
2018-03-19T12:49:55.864Z,3.00
2018-03-19T12:52:24.887Z,2.90
2018-03-19T12:54:53.145Z,2.80
2018-03-19T12:57:21.798Z,2.80
2018-03-19T12:59:49.994Z,2.80
2018-03-19T13:02:19.043Z,3.10
2018-03-19T13:04:47.523Z,3.00
2018-03-19T13:07:15.763Z,3.00
2018-03-19T13:09:44.022Z,3.10
2018-03-19T13:12:13.103Z,3.10
2018-03-19T13:14:41.386Z,3.10
2018-03-19T13:17:09.666Z,3.00
2018-03-19T13:19:37.951Z,2.90
2018-03-19T13:22:06.223Z,3.00
2018-03-19T13:24:34.485Z,2.90
2018-03-19T13:27:02.753Z,2.80
2018-03-19T13:29:31.799Z,2.80
2018-03-19T13:32:00.059Z,3.00
2018-03-19T13:34:30.059Z,2.80
2018-03-19T13:36:58.322Z,2.80
2018-03-19T13:39:26.621Z,2.80
2018-03-19T13:41:54.886Z,2.80
2018-03-19T13:44:23.143Z,2.90
2018-03-19T13:46:51.379Z,2.90
2018-03-19T13:49:21.921Z,3.00
2018-03-19T13:51:50.193Z,3.00
2018-03-19T13:54:18.466Z,3.00
2018-03-19T13:56:46.886Z,3.00
2018-03-19T13:59:15.352Z,3.10
2018-03-19T14:01:43.586Z,3.20
2018-03-19T14:04:12.334Z,3.20
2018-03-19T14:06:40.642Z,3.30
2018-03-19T14:09:10.451Z,3.20
2018-03-19T14:11:38.713Z,3.20
2018-03-19T14:14:07.025Z,3.30
2018-03-19T14:16:36.822Z,3.40
2018-03-19T14:19:05.071Z,3.40
2018-03-19T14:21:33.369Z,3.50
2018-03-19T14:24:01.626Z,3.40
2018-03-19T14:26:29.923Z,3.40
2018-03-19T14:28:58.172Z,3.50
2018-03-19T14:31:27.313Z,3.50
2018-03-19T14:33:55.589Z,3.60
2018-03-19T14:36:23.847Z,3.50
2018-03-19T14:38:52.967Z,3.40
2018-03-19T14:41:21.998Z,3.50
2018-03-19T14:43:50.276Z,3.40
2018-03-19T14:46:19.129Z,3.50
2018-03-19T14:48:48.246Z,3.40
2018-03-19T14:51:17.276Z,3.20
2018-03-19T14:53:45.535Z,3.20
2018-03-19T14:56:13.824Z,2.90
2018-03-19T14:58:42.075Z,2.80
2018-03-19T15:01:11.168Z,2.60
2018-03-19T15:03:40.391Z,2.40
2018-03-19T15:06:08.653Z,2.40
2018-03-19T15:08:37.352Z,2.50
2018-03-19T15:11:05.604Z,2.60
2018-03-19T15:13:34.645Z,2.50
2018-03-19T15:16:02.931Z,2.50
2018-03-19T15:18:31.221Z,2.40
2018-03-19T15:20:59.476Z,2.50
2018-03-19T15:23:28.557Z,2.50
2018-03-19T15:25:56.871Z,2.50
2018-03-19T15:28:25.903Z,2.70
2018-03-19T15:30:54.936Z,2.80
2018-03-19T15:33:24.749Z,2.80
2018-03-19T15:35:53.078Z,2.70
2018-03-19T15:38:21.300Z,2.60
2018-03-19T15:40:49.569Z,2.60
2018-03-19T15:43:19.385Z,2.60
2018-03-19T15:45:48.626Z,2.70
2018-03-19T15:48:17.753Z,2.80
2018-03-19T15:50:46.902Z,2.80
2018-03-19T15:53:15.156Z,2.70
2018-03-19T15:55:43.489Z,2.70
2018-03-19T15:58:11.748Z,2.50
2018-03-19T16:00:40.041Z,2.40
2018-03-19T16:03:08.274Z,2.30
2018-03-19T16:05:36.596Z,2.30
2018-03-19T16:08:04.839Z,2.30
2018-03-19T16:10:33.152Z,2.30
2018-03-19T16:13:01.410Z,2.20
2018-03-19T16:15:29.697Z,2.10
2018-03-19T16:17:58.796Z,1.90
2018-03-19T16:20:27.903Z,1.90
2018-03-19T16:22:56.142Z,1.90
2018-03-19T16:25:25.379Z,1.70
2018-03-19T16:27:54.491Z,1.70
2018-03-19T16:30:23.493Z,1.70
2018-03-19T16:32:52.571Z,1.60
2018-03-19T16:35:20.829Z,1.60
2018-03-19T16:37:49.115Z,1.60
2018-03-19T16:40:17.565Z,1.50
2018-03-19T16:42:45.825Z,1.60
2018-03-19T16:45:14.106Z,1.60
2018-03-19T16:47:42.404Z,1.50
2018-03-19T16:50:10.665Z,1.60
2018-03-19T16:52:38.929Z,1.60
2018-03-19T16:55:08.894Z,1.60
2018-03-19T16:57:37.158Z,1.50
2018-03-19T17:00:05.416Z,1.60
2018-03-19T17:02:33.752Z,1.60
2018-03-19T17:05:01.987Z,1.50
2018-03-19T17:07:30.294Z,1.50
2018-03-19T17:09:59.348Z,1.30
2018-03-19T17:12:27.949Z,1.30
2018-03-19T17:14:56.511Z,1.20
2018-03-19T17:17:25.074Z,1.10
2018-03-19T17:19:54.127Z,1.20
2018-03-19T17:22:22.378Z,1.10
2018-03-19T17:24:51.296Z,1.10
2018-03-19T17:27:19.585Z,1.10
2018-03-19T17:29:47.882Z,1.00
2018-03-19T17:32:16.129Z,0.90
2018-03-19T17:34:44.424Z,0.90
2018-03-19T17:37:12.700Z,0.90
2018-03-19T17:39:41.526Z,0.80
2018-03-19T17:42:10.296Z,0.70
2018-03-19T17:44:39.369Z,0.70
2018-03-19T17:47:07.594Z,0.70
2018-03-19T17:49:35.944Z,0.60
2018-03-19T17:52:04.284Z,0.60
2018-03-19T17:54:32.586Z,0.60
2018-03-19T17:57:02.822Z,0.60
2018-03-19T17:59:31.115Z,0.50
2018-03-19T18:02:00.162Z,0.40
2018-03-19T18:04:28.440Z,0.40
2018-03-19T18:06:57.528Z,0.40
2018-03-19T18:09:26.546Z,0.40
2018-03-19T18:11:56.044Z,0.40
2018-03-19T18:14:24.298Z,0.40
2018-03-19T18:16:56.822Z,0.30
2018-03-19T18:19:25.107Z,0.20
2018-03-19T18:21:54.923Z,0.10
2018-03-19T18:24:25.030Z,0.10
2018-03-19T18:26:54.132Z,0.20
2018-03-19T18:29:23.051Z,0.20
2018-03-19T18:31:52.089Z,0.20
2018-03-19T18:34:20.668Z,0.20
2018-03-19T18:36:51.049Z,0.20
2018-03-19T18:39:20.819Z,0.10
2018-03-19T18:41:49.825Z,0.10
2018-03-19T18:44:18.095Z,0.10
2018-03-19T18:46:46.611Z,0.10
2018-03-19T18:49:15.917Z,0.10
2018-03-19T18:51:46.795Z,0.00
2018-03-19T18:54:16.254Z,0.10
2018-03-19T18:56:44.730Z,0.10
2018-03-19T18:59:13.071Z,0.00
2018-03-19T19:01:41.971Z,0.00
2018-03-19T19:04:13.152Z,0.00
2018-03-19T19:06:45.709Z,0.00
2018-03-19T19:09:14.571Z,0.00
2018-03-19T19:11:42.849Z,0.00
2018-03-19T19:14:12.319Z,0.00
2018-03-19T19:16:40.638Z,0.00
2018-03-19T19:19:09.737Z,-0.10
2018-03-19T19:21:37.999Z,-0.10
2018-03-19T19:24:11.598Z,-0.10
2018-03-19T19:26:41.999Z,-0.10
2018-03-19T19:29:16.297Z,-0.20
2018-03-19T19:31:45.561Z,-0.30
2018-03-19T19:34:14.389Z,-0.30
2018-03-19T19:36:43.453Z,-0.30
2018-03-19T19:39:14.114Z,-0.30
2018-03-19T19:41:44.512Z,-0.30
2018-03-19T19:44:12.973Z,-0.30
2018-03-19T19:46:41.335Z,-0.30
2018-03-19T19:49:09.646Z,-0.20
2018-03-19T19:51:39.197Z,-0.30
2018-03-19T19:54:08.334Z,-0.30
2018-03-19T19:56:37.534Z,-0.30
2018-03-19T19:59:05.939Z,-0.30
2018-03-19T20:01:34.275Z,-0.30
2018-03-19T20:04:03.359Z,-0.30
2018-03-19T20:06:32.403Z,-0.40
2018-03-19T20:09:01.547Z,-0.40
2018-03-19T20:11:31.554Z,-0.40
2018-03-19T20:13:59.929Z,-0.40
2018-03-19T20:16:29.020Z,-0.70
2018-03-19T20:18:57.304Z,-0.60
2018-03-19T20:21:27.399Z,-0.80
2018-03-19T20:23:56.150Z,-0.80
2018-03-19T20:26:24.417Z,-0.80
2018-03-19T20:28:53.508Z,-0.90
2018-03-19T20:31:21.865Z,-0.90
2018-03-19T20:33:50.144Z,-0.90
2018-03-19T20:36:18.399Z,-0.90
2018-03-19T20:38:46.739Z,-0.80
2018-03-19T20:41:15.817Z,-1.00
2018-03-19T20:43:44.876Z,-1.10
2018-03-19T20:46:13.238Z,-1.10
2018-03-19T20:48:41.500Z,-1.30
2018-03-19T20:51:09.896Z,-1.30
2018-03-19T20:53:38.168Z,-1.40
2018-03-19T20:56:06.544Z,-1.50
2018-03-19T20:58:34.787Z,-1.50
2018-03-19T21:01:04.241Z,-1.50
2018-03-19T21:03:32.543Z,-1.60
2018-03-19T21:06:01.616Z,-1.50
2018-03-19T21:08:29.906Z,-1.50
2018-03-19T21:10:59.019Z,-1.50
2018-03-19T21:13:27.279Z,-1.50
2018-03-19T21:15:55.640Z,-1.50
2018-03-19T21:18:23.924Z,-1.60
2018-03-19T21:20:52.227Z,-1.60
2018-03-19T21:23:20.570Z,-1.60
2018-03-19T21:25:48.908Z,-1.60
2018-03-19T21:28:17.279Z,-1.60
2018-03-19T21:30:46.312Z,-1.60
2018-03-19T21:33:14.633Z,-1.60
2018-03-19T21:35:42.987Z,-1.70
2018-03-19T21:38:12.022Z,-1.90
2018-03-19T21:40:40.559Z,-1.90
2018-03-19T21:43:08.880Z,-2.00
2018-03-19T21:45:37.159Z,-2.20
2018-03-19T21:48:05.460Z,-2.40
2018-03-19T21:50:34.512Z,-2.50
2018-03-19T21:53:02.754Z,-2.50
2018-03-19T21:55:32.735Z,-2.50
2018-03-19T21:58:01.160Z,-2.50
2018-03-19T22:00:29.437Z,-2.60
2018-03-19T22:02:58.012Z,-2.50
2018-03-19T22:05:27.034Z,-2.50
2018-03-19T22:07:55.345Z,-2.50
2018-03-19T22:10:23.595Z,-2.50
2018-03-19T22:12:51.858Z,-2.50
2018-03-19T22:15:21.034Z,-2.50
2018-03-19T22:17:49.324Z,-2.60
2018-03-19T22:20:17.609Z,-2.60
2018-03-19T22:22:45.880Z,-2.70
2018-03-19T22:25:14.704Z,-2.70
2018-03-19T22:27:42.994Z,-2.80
2018-03-19T22:30:11.344Z,-2.90
2018-03-19T22:32:39.609Z,-3.00
2018-03-19T22:35:08.361Z,-3.00
2018-03-19T22:37:36.579Z,-3.00
2018-03-19T22:40:04.907Z,-3.10
2018-03-19T22:42:33.219Z,-3.00
2018-03-19T22:45:01.503Z,-3.10
2018-03-19T22:47:30.735Z,-3.10
2018-03-19T22:50:00.117Z,-3.20
2018-03-19T22:52:28.381Z,-3.30
2018-03-19T22:54:56.664Z,-3.20
2018-03-19T22:57:24.909Z,-3.30
2018-03-19T22:59:54.799Z,-3.40
2018-03-19T23:02:23.060Z,-3.40
2018-03-19T23:05:22.242Z,-3.40
2018-03-19T23:07:50.556Z,-3.40
2018-03-19T23:10:18.801Z,-3.50
2018-03-19T23:12:47.125Z,-3.50
2018-03-19T23:15:15.350Z,-3.50
2018-03-19T23:17:43.681Z,-3.50
2018-03-19T23:20:11.934Z,-3.50
2018-03-19T23:22:40.194Z,-3.60
2018-03-19T23:25:08.459Z,-3.60
2018-03-19T23:27:36.701Z,-3.70
2018-03-19T23:30:04.994Z,-3.80
2018-03-19T23:32:33.304Z,-3.80
2018-03-19T23:35:01.617Z,-3.80
2018-03-19T23:37:29.867Z,-3.80
2018-03-19T23:39:58.138Z,-3.90
2018-03-19T23:42:26.427Z,-3.90
2018-03-19T23:44:54.697Z,-3.90
2018-03-19T23:47:22.969Z,-3.90
2018-03-19T23:49:51.314Z,-3.90
2018-03-19T23:52:20.320Z,-3.90
2018-03-19T23:54:49.101Z,-4.00
2018-03-19T23:57:18.034Z,-4.00
2018-03-19T23:59:47.084Z,-4.00
